createdAt,value
2022-08-17T00:01:52.342Z,9.02
2022-08-17T00:04:23.082Z,10.75
2022-08-17T00:06:53.224Z,10.55
2022-08-17T00:09:20.948Z,9.10
2022-08-17T00:12:41.808Z,11.07
2022-08-17T00:14:38.406Z,9.05
2022-08-17T00:17:06.393Z,8.38
2022-08-17T00:19:35.549Z,13.68
2022-08-17T00:22:31.530Z,10.30
2022-08-17T00:24:54.856Z,11.18
2022-08-17T00:27:22.638Z,12.50
2022-08-17T00:29:50.351Z,12.48
2022-08-17T00:33:14.032Z,10.30
2022-08-17T00:35:09.596Z,12.73
2022-08-17T00:37:37.461Z,10.57
2022-08-17T00:40:06.825Z,12.60
2022-08-17T00:42:34.758Z,11.13
2022-08-17T00:45:04.381Z,11.38
2022-08-17T00:47:32.247Z,9.85
2022-08-17T00:50:00.034Z,11.82
2022-08-17T00:52:34.820Z,11.68
2022-08-17T00:55:05.767Z,10.70
2022-08-17T00:57:37.260Z,11.50
2022-08-17T01:00:09.854Z,10.15
2022-08-17T01:02:43.148Z,10.70
2022-08-17T01:05:20.693Z,12.80
2022-08-17T01:07:51.312Z,10.25
2022-08-17T01:10:59.223Z,10.48
2022-08-17T01:13:12.794Z,10.82
2022-08-17T01:15:46.196Z,13.43
2022-08-17T01:18:15.864Z,13.82
2022-08-17T01:20:48.968Z,16.27
2022-08-17T01:23:21.249Z,13.43
2022-08-17T01:25:51.241Z,10.30
2022-08-17T01:28:52.716Z,13.07
2022-08-17T01:31:09.055Z,12.88
2022-08-17T01:33:37.078Z,17.35
2022-08-17T01:36:06.913Z,12.85
2022-08-17T01:38:37.026Z,13.63
2022-08-17T01:41:09.453Z,19.15
2022-08-17T01:43:44.536Z,14.45
2022-08-17T01:46:16.550Z,12.80
2022-08-17T01:48:47.257Z,16.20
2022-08-17T01:51:16.461Z,13.07
2022-08-17T01:53:49.424Z,13.65
2022-08-17T01:56:20.349Z,14.90
2022-08-17T01:58:48.341Z,13.13
2022-08-17T02:01:18.502Z,12.55
2022-08-17T02:03:59.086Z,11.98
2022-08-17T02:06:29.801Z,15.70
2022-08-17T02:09:02.213Z,13.48
2022-08-17T02:11:33.507Z,14.20
2022-08-17T02:14:04.044Z,13.43
2022-08-17T02:16:36.834Z,12.75
2022-08-17T02:19:07.270Z,13.23
2022-08-17T02:21:35.162Z,16.50
2022-08-17T02:24:06.481Z,15.60
2022-08-17T02:26:34.559Z,14.38
2022-08-17T02:29:02.244Z,13.77
2022-08-17T02:31:31.103Z,15.48
2022-08-17T02:34:03.632Z,12.63
2022-08-17T02:36:32.430Z,15.55
2022-08-17T02:39:02.219Z,16.95
2022-08-17T02:41:31.560Z,14.63
2022-08-17T02:43:59.629Z,16.52
2022-08-17T02:46:27.862Z,13.63
2022-08-17T02:48:56.033Z,15.40
2022-08-17T02:51:24.150Z,13.60
2022-08-17T02:53:52.346Z,14.05
2022-08-17T02:56:34.412Z,15.82
2022-08-17T02:59:02.251Z,13.73
2022-08-17T03:01:30.350Z,13.88
2022-08-17T03:03:58.052Z,16.35
2022-08-17T03:06:25.881Z,15.23
2022-08-17T03:08:54.567Z,13.65
2022-08-17T03:11:22.331Z,13.80
2022-08-17T03:13:51.830Z,11.27
2022-08-17T03:16:19.618Z,13.82
2022-08-17T03:18:47.327Z,13.05
2022-08-17T03:21:15.150Z,15.57
2022-08-17T03:23:42.837Z,12.82
2022-08-17T03:26:15.299Z,13.23
2022-08-17T03:28:43.346Z,13.48
2022-08-17T03:31:12.489Z,11.43
2022-08-17T03:33:40.275Z,17.08
2022-08-17T03:36:08.705Z,15.43
2022-08-17T03:38:39.397Z,15.75
2022-08-17T03:41:07.759Z,15.30
2022-08-17T03:43:35.612Z,14.77
2022-08-17T03:46:34.214Z,13.05
2022-08-17T03:49:23.815Z,14.20
2022-08-17T03:52:09.551Z,12.68
2022-08-17T03:54:55.170Z,13.57
2022-08-17T03:57:23.014Z,13.35
2022-08-17T03:59:50.953Z,18.48
2022-08-17T04:02:22.550Z,14.20
2022-08-17T04:04:52.491Z,18.80
2022-08-17T04:07:22.056Z,14.80
2022-08-17T04:09:50.032Z,13.93
2022-08-17T04:12:18.714Z,12.63
2022-08-17T04:14:53.147Z,11.80
2022-08-17T04:17:24.328Z,15.15
2022-08-17T04:19:54.328Z,14.50
2022-08-17T04:22:30.689Z,16.65
2022-08-17T04:25:03.012Z,20.30
2022-08-17T04:27:30.840Z,18.13
2022-08-17T04:29:58.906Z,20.13
2022-08-17T04:33:04.850Z,13.70
2022-08-17T04:35:19.254Z,13.75
2022-08-17T04:37:47.356Z,13.88
2022-08-17T04:40:32.597Z,15.18
2022-08-17T04:43:07.072Z,16.15
2022-08-17T04:45:34.961Z,14.60
2022-08-17T04:48:02.691Z,13.57
2022-08-17T04:50:31.965Z,12.35
2022-08-17T04:53:00.418Z,14.80
2022-08-17T04:55:28.701Z,15.02
2022-08-17T04:57:56.609Z,14.60
2022-08-17T05:00:25.809Z,14.13
2022-08-17T05:02:55.968Z,12.52
2022-08-17T05:05:26.408Z,12.60
2022-08-17T05:07:57.553Z,11.43
2022-08-17T05:10:27.733Z,12.88
2022-08-17T05:13:00.342Z,15.38
2022-08-17T05:15:28.853Z,16.25
2022-08-17T05:18:01.054Z,13.95
2022-08-17T05:20:29.895Z,15.55
2022-08-17T05:23:01.642Z,17.30
2022-08-17T05:25:34.507Z,17.52
2022-08-17T05:28:06.529Z,17.73
2022-08-17T05:30:35.461Z,17.17
2022-08-17T05:33:06.019Z,15.50
2022-08-17T05:35:36.387Z,17.50
2022-08-17T05:38:05.927Z,21.02
2022-08-17T05:40:33.693Z,19.40
2022-08-17T05:43:06.729Z,17.60
2022-08-17T05:45:54.350Z,16.38
2022-08-17T05:48:22.874Z,17.17
2022-08-17T05:51:29.311Z,17.85
2022-08-17T05:54:10.656Z,17.92
2022-08-17T05:57:00.907Z,17.00
2022-08-17T05:59:38.716Z,18.30
2022-08-17T06:02:17.153Z,18.58
2022-08-17T06:05:05.546Z,16.45
2022-08-17T06:07:43.438Z,18.38
2022-08-17T06:10:18.292Z,15.35
2022-08-17T06:12:57.448Z,14.93
2022-08-17T06:15:32.508Z,18.40
2022-08-17T06:18:04.902Z,18.17
2022-08-17T06:20:39.882Z,17.02
2022-08-17T06:23:15.357Z,18.13
2022-08-17T06:25:49.236Z,15.25
2022-08-17T06:28:27.696Z,17.75
2022-08-17T06:31:01.384Z,17.95
2022-08-17T06:33:35.082Z,15.88
2022-08-17T06:36:16.267Z,16.77
2022-08-17T06:38:58.301Z,14.40
2022-08-17T06:41:37.557Z,14.00
2022-08-17T06:44:42.207Z,15.18
2022-08-17T06:47:13.482Z,12.40
2022-08-17T06:49:54.648Z,13.85
2022-08-17T06:52:42.294Z,14.00
2022-08-17T06:55:18.918Z,15.05
2022-08-17T06:57:53.048Z,14.38
2022-08-17T07:02:57.763Z,12.80
2022-08-17T07:08:03.547Z,11.95
2022-08-17T07:10:39.092Z,14.57
2022-08-17T07:13:25.613Z,13.77
2022-08-17T07:15:57.497Z,13.95
2022-08-17T07:18:33.026Z,12.90
2022-08-17T07:21:17.562Z,15.82
2022-08-17T07:24:01.775Z,14.52
2022-08-17T07:26:29.902Z,11.38
2022-08-17T07:29:01.771Z,12.82
2022-08-17T07:31:33.646Z,8.23
2022-08-17T07:34:08.727Z,8.80
2022-08-17T07:36:36.600Z,8.45
2022-08-17T07:39:06.578Z,15.65
2022-08-17T07:41:53.283Z,8.73
2022-08-17T07:44:27.600Z,8.18
2022-08-17T07:47:13.225Z,8.52
2022-08-17T07:49:44.633Z,11.07
2022-08-17T07:52:47.660Z,11.43
2022-08-17T07:55:27.679Z,8.10
2022-08-17T07:57:57.338Z,7.13
2022-08-17T08:00:32.123Z,8.68
2022-08-17T08:03:20.274Z,7.50
2022-08-17T08:05:52.470Z,7.60
2022-08-17T08:08:29.078Z,8.25
2022-08-17T08:11:04.246Z,7.28
2022-08-17T08:13:33.215Z,7.00
2022-08-17T08:16:23.802Z,6.10
2022-08-17T08:18:56.848Z,6.13
2022-08-17T08:21:36.739Z,6.53
2022-08-17T08:24:23.525Z,7.18
2022-08-17T08:27:00.257Z,5.82
2022-08-17T08:29:34.376Z,7.03
2022-08-17T08:32:18.219Z,8.45
2022-08-17T08:35:01.759Z,6.43
2022-08-17T08:37:43.282Z,6.70
2022-08-17T08:40:29.872Z,13.43
2022-08-17T08:43:05.174Z,9.27
2022-08-17T08:45:43.887Z,6.70
2022-08-17T08:48:53.238Z,6.60
2022-08-17T08:51:23.040Z,7.07
2022-08-17T08:53:59.890Z,6.93
2022-08-17T08:56:37.568Z,7.80
2022-08-17T08:59:16.826Z,8.13
2022-08-17T09:01:53.196Z,7.50
2022-08-17T09:05:12.836Z,6.80
2022-08-17T09:07:44.763Z,7.75
2022-08-17T09:10:24.586Z,8.02
2022-08-17T09:13:09.571Z,12.55
2022-08-17T09:15:43.554Z,7.35
2022-08-17T09:18:59.820Z,8.02
2022-08-17T09:21:18.462Z,8.30
2022-08-17T09:23:59.525Z,8.18
2022-08-17T09:26:32.697Z,8.70
2022-08-17T09:29:07.361Z,7.30
2022-08-17T09:31:47.102Z,8.02
2022-08-17T09:34:21.202Z,11.65
2022-08-17T09:36:57.438Z,8.65
2022-08-17T09:39:31.804Z,7.95
2022-08-17T09:42:05.997Z,8.40
2022-08-17T09:44:41.021Z,8.02
2022-08-17T09:47:15.458Z,8.70
2022-08-17T09:49:48.325Z,7.85
2022-08-17T09:52:21.357Z,7.82
2022-08-17T09:54:51.029Z,8.07
2022-08-17T09:57:32.324Z,7.68
2022-08-17T10:00:20.006Z,7.55
2022-08-17T10:03:24.123Z,8.27
2022-08-17T10:06:01.974Z,7.63
2022-08-17T10:08:43.047Z,6.60
2022-08-17T10:11:33.634Z,8.50
2022-08-17T10:14:36.304Z,5.80
2022-08-17T10:17:04.570Z,7.97
2022-08-17T10:19:38.650Z,8.00
2022-08-17T10:22:34.478Z,14.45
2022-08-17T10:25:30.206Z,6.38
2022-08-17T10:28:19.969Z,6.78
2022-08-17T10:31:10.451Z,4.95
2022-08-17T10:33:53.971Z,7.03
2022-08-17T10:36:28.221Z,5.40
2022-08-17T10:39:07.185Z,5.25
2022-08-17T10:41:44.309Z,5.55
2022-08-17T10:44:39.558Z,4.95
2022-08-17T10:47:12.723Z,7.43
2022-08-17T10:49:45.655Z,5.18
2022-08-17T10:52:49.914Z,6.55
2022-08-17T10:55:20.448Z,8.90
2022-08-17T10:57:52.908Z,5.53
2022-08-17T11:01:12.659Z,5.57
2022-08-17T11:03:54.778Z,6.57
2022-08-17T11:06:33.124Z,10.20
2022-08-17T11:09:18.530Z,7.40
2022-08-17T11:12:06.556Z,6.93
2022-08-17T11:15:01.666Z,8.68
2022-08-17T11:17:50.760Z,8.73
2022-08-17T11:20:55.694Z,7.57
2022-08-17T11:23:35.132Z,6.35
2022-08-17T11:26:08.307Z,9.20
2022-08-17T11:28:48.635Z,10.27
2022-08-17T11:31:39.117Z,7.97
2022-08-17T11:34:15.293Z,8.07
2022-08-17T11:37:12.846Z,8.80
2022-08-17T11:39:56.674Z,7.80
2022-08-17T11:42:37.428Z,10.80
2022-08-17T11:45:32.521Z,9.63
2022-08-17T11:48:28.309Z,9.35
2022-08-17T11:51:19.065Z,11.55
2022-08-17T11:54:31.251Z,10.00
2022-08-17T11:56:53.282Z,10.48
2022-08-17T11:59:59.490Z,9.23
2022-08-17T12:02:47.890Z,9.75
2022-08-17T12:05:33.167Z,9.15
2022-08-17T12:08:08.564Z,10.82
2022-08-17T12:10:40.865Z,9.57
2022-08-17T12:13:15.604Z,8.57
2022-08-17T12:15:48.638Z,10.27
2022-08-17T12:18:24.479Z,11.10
2022-08-17T12:21:20.950Z,8.95
2022-08-17T12:23:56.956Z,13.43
2022-08-17T12:26:30.248Z,8.50
2022-08-17T12:29:01.388Z,9.18
2022-08-17T12:31:32.415Z,13.35
2022-08-17T12:34:00.499Z,10.73
2022-08-17T12:36:30.005Z,11.05
2022-08-17T12:39:14.481Z,9.20
2022-08-17T12:41:46.914Z,11.10
2022-08-17T12:44:17.390Z,9.20
2022-08-17T12:46:54.826Z,10.00
2022-08-17T12:49:31.754Z,9.38
2022-08-17T12:52:15.612Z,9.25
2022-08-17T12:54:51.578Z,9.35
2022-08-17T12:57:21.679Z,8.38
2022-08-17T12:59:53.063Z,10.07
2022-08-17T13:02:30.244Z,9.68
2022-08-17T13:05:01.388Z,8.15
2022-08-17T13:07:37.457Z,8.88
2022-08-17T13:10:08.068Z,7.82
2022-08-17T13:12:37.323Z,9.02
2022-08-17T13:15:06.100Z,7.55
2022-08-17T13:17:36.793Z,7.60
2022-08-17T13:20:06.716Z,7.63
2022-08-17T13:22:36.034Z,10.13
2022-08-17T13:25:08.429Z,7.50
2022-08-17T13:27:36.558Z,6.80
2022-08-17T13:30:11.575Z,8.80
2022-08-17T13:32:45.103Z,6.80
2022-08-17T13:35:39.374Z,8.13
2022-08-17T13:38:12.361Z,8.10
2022-08-17T13:40:43.677Z,7.35
2022-08-17T13:43:12.529Z,8.38
2022-08-17T13:45:50.993Z,5.75
2022-08-17T13:48:28.942Z,8.48
2022-08-17T13:51:12.666Z,9.32
2022-08-17T13:53:53.463Z,6.43
2022-08-17T13:56:54.365Z,6.28
2022-08-17T13:59:53.485Z,6.97
2022-08-17T14:02:25.988Z,7.47
2022-08-17T14:04:56.774Z,6.18
2022-08-17T14:07:30.106Z,8.05
2022-08-17T14:10:03.383Z,12.95
2022-08-17T14:12:34.290Z,9.98
2022-08-17T14:15:02.802Z,6.90
2022-08-17T14:17:35.048Z,6.28
2022-08-17T14:20:07.579Z,7.35
2022-08-17T14:22:38.393Z,6.40
2022-08-17T14:25:10.502Z,6.35
2022-08-17T14:27:51.990Z,5.60
2022-08-17T14:30:23.557Z,5.43
2022-08-17T14:32:52.717Z,6.75
2022-08-17T14:35:23.124Z,7.22
2022-08-17T14:37:51.721Z,6.28
2022-08-17T14:40:22.615Z,6.43
2022-08-17T14:42:50.841Z,5.95
2022-08-17T14:45:30.422Z,6.32
2022-08-17T14:48:02.656Z,7.38
2022-08-17T14:50:35.168Z,4.88
2022-08-17T14:53:04.547Z,4.97
2022-08-17T14:55:34.008Z,4.85
2022-08-17T14:58:01.895Z,6.63
2022-08-17T15:00:29.796Z,7.05
2022-08-17T15:02:59.958Z,7.18
2022-08-17T15:05:30.531Z,5.05
2022-08-17T15:07:59.140Z,7.10
2022-08-17T15:10:27.797Z,7.90
2022-08-17T15:12:57.194Z,5.90
2022-08-17T15:15:25.208Z,5.22
2022-08-17T15:17:53.667Z,5.75
2022-08-17T15:20:24.651Z,6.60
2022-08-17T15:22:54.996Z,7.45
2022-08-17T15:25:23.574Z,6.03
2022-08-17T15:27:51.782Z,6.60
2022-08-17T15:30:21.489Z,5.60
2022-08-17T15:32:53.982Z,5.72
2022-08-17T15:35:27.829Z,5.38
2022-08-17T15:38:07.827Z,9.23
2022-08-17T15:40:39.961Z,5.70
2022-08-17T15:43:08.313Z,7.20
2022-08-17T15:45:38.122Z,6.70
2022-08-17T15:48:06.890Z,6.43
2022-08-17T15:50:34.700Z,6.97
2022-08-17T15:53:03.536Z,6.97
2022-08-17T15:55:32.571Z,6.07
2022-08-17T15:58:00.998Z,6.45
2022-08-17T16:00:29.577Z,9.18
2022-08-17T16:03:45.126Z,7.13
2022-08-17T16:05:50.211Z,7.10
2022-08-17T16:08:21.338Z,5.38
2022-08-17T16:10:49.851Z,7.20
2022-08-17T16:13:18.823Z,9.63
2022-08-17T16:15:56.609Z,8.90
2022-08-17T16:18:31.369Z,7.05
2022-08-17T16:21:19.733Z,5.45
2022-08-17T16:23:48.040Z,7.75
2022-08-17T16:26:15.968Z,7.55
2022-08-17T16:28:43.871Z,5.32
2022-08-17T16:31:12.145Z,5.25
2022-08-17T16:33:41.399Z,8.48
2022-08-17T16:36:09.656Z,5.47
2022-08-17T16:38:38.581Z,5.25
2022-08-17T16:41:07.333Z,5.85
2022-08-17T16:43:35.666Z,5.47
2022-08-17T16:46:06.408Z,5.80
2022-08-17T16:48:34.288Z,8.45
2022-08-17T16:51:04.386Z,8.52
2022-08-17T16:53:32.598Z,7.15
2022-08-17T16:56:00.494Z,6.10
2022-08-17T16:58:28.447Z,8.02
2022-08-17T17:00:59.652Z,8.60
2022-08-17T17:03:31.278Z,7.03
2022-08-17T17:06:08.023Z,8.00
2022-08-17T17:08:44.893Z,7.65
2022-08-17T17:11:16.122Z,7.68
2022-08-17T17:13:48.401Z,6.68
2022-08-17T17:16:21.520Z,9.00
2022-08-17T17:19:04.533Z,8.32
2022-08-17T17:21:38.737Z,10.70
2022-08-17T17:24:14.658Z,8.55
2022-08-17T17:26:57.497Z,7.78
2022-08-17T17:29:47.738Z,7.68
2022-08-17T17:32:22.368Z,7.90
2022-08-17T17:35:05.000Z,10.07
2022-08-17T17:37:36.287Z,8.32
2022-08-17T17:40:10.407Z,7.15
2022-08-17T17:42:41.535Z,10.80
2022-08-17T17:45:18.123Z,9.95
2022-08-17T17:47:46.605Z,11.80
2022-08-17T17:50:16.674Z,9.20
2022-08-17T17:52:58.759Z,8.65
2022-08-17T17:55:37.295Z,8.27
2022-08-17T17:58:23.285Z,11.95
2022-08-17T18:01:03.638Z,7.47
2022-08-17T18:03:50.429Z,8.30
2022-08-17T18:06:30.271Z,7.85
2022-08-17T18:09:10.511Z,9.75
2022-08-17T18:12:00.679Z,8.85
2022-08-17T18:14:43.827Z,9.85
2022-08-17T18:17:11.889Z,10.75
2022-08-17T18:19:39.953Z,14.45
2022-08-17T18:22:14.386Z,11.18
2022-08-17T18:24:46.317Z,13.43
2022-08-17T18:27:24.547Z,10.23
2022-08-17T18:29:54.161Z,9.68
2022-08-17T18:32:29.028Z,10.93
2022-08-17T18:34:59.354Z,9.25
2022-08-17T18:37:49.012Z,7.95
2022-08-17T18:40:39.190Z,7.80
2022-08-17T18:43:14.302Z,8.02
2022-08-17T18:45:46.417Z,14.18
2022-08-17T18:48:25.346Z,11.95
2022-08-17T18:50:55.177Z,13.70
2022-08-17T18:53:33.229Z,13.18
2022-08-17T18:56:30.741Z,10.65
2022-08-17T18:59:06.611Z,13.98
2022-08-17T19:01:41.704Z,8.23
2022-08-17T19:04:34.702Z,9.18
2022-08-17T19:07:08.952Z,13.25
2022-08-17T19:12:27.203Z,9.38
2022-08-17T19:15:00.684Z,15.73
2022-08-17T19:17:36.760Z,15.38
2022-08-17T19:20:17.582Z,16.45
2022-08-17T19:22:57.313Z,9.48
2022-08-17T19:25:29.196Z,13.13
2022-08-17T19:28:21.629Z,9.75
2022-08-17T19:30:55.773Z,11.60
2022-08-17T19:33:23.902Z,10.85
2022-08-17T19:36:02.459Z,11.52
2022-08-17T19:38:41.958Z,8.38
2022-08-17T19:41:17.471Z,8.48
2022-08-17T19:43:55.646Z,10.52
2022-08-17T19:46:30.971Z,8.75
2022-08-17T19:49:12.572Z,9.98
2022-08-17T19:51:48.659Z,8.23
2022-08-17T19:54:23.648Z,10.52
2022-08-17T19:57:01.575Z,8.82
2022-08-17T19:59:49.031Z,7.35
2022-08-17T20:02:28.843Z,10.73
2022-08-17T20:05:01.222Z,8.25
2022-08-17T20:07:36.729Z,13.52
2022-08-17T20:10:07.958Z,11.50
2022-08-17T20:12:38.497Z,10.10
2022-08-17T20:15:12.507Z,9.20
2022-08-17T20:20:29.816Z,9.02
2022-08-17T20:23:03.689Z,11.95
2022-08-17T20:25:37.002Z,7.88
2022-08-17T20:28:17.373Z,9.77
2022-08-17T20:30:47.025Z,9.55
2022-08-17T20:33:26.786Z,10.63
2022-08-17T20:36:15.649Z,9.02
2022-08-17T20:38:45.773Z,11.05
2022-08-17T20:41:16.774Z,10.40
2022-08-17T20:44:03.754Z,9.80
2022-08-17T20:46:52.696Z,9.63
2022-08-17T20:49:27.032Z,11.82
2022-08-17T20:52:02.378Z,11.02
2022-08-17T20:54:49.693Z,9.95
2022-08-17T20:57:47.809Z,10.13
2022-08-17T21:00:42.616Z,10.75
2022-08-17T21:03:58.259Z,9.25
2022-08-17T21:06:29.733Z,10.93
2022-08-17T21:09:19.102Z,12.18
2022-08-17T21:12:04.584Z,11.82
2022-08-17T21:14:41.925Z,10.02
2022-08-17T21:17:29.601Z,13.27
2022-08-17T21:20:12.574Z,11.65
2022-08-17T21:22:57.534Z,11.07
2022-08-17T21:25:48.261Z,13.27
2022-08-17T21:28:23.108Z,9.05
2022-08-17T21:31:08.953Z,15.07
2022-08-17T21:33:38.988Z,10.80
2022-08-17T21:36:25.711Z,11.93
2022-08-17T21:39:02.223Z,8.80
2022-08-17T21:41:33.389Z,9.68
2022-08-17T21:44:14.163Z,11.65
2022-08-17T21:46:46.920Z,11.02
2022-08-17T21:49:19.328Z,8.85
2022-08-17T21:51:50.280Z,10.15
2022-08-17T21:54:35.618Z,10.95
2022-08-17T21:57:07.106Z,10.73
2022-08-17T21:59:39.274Z,9.60
2022-08-17T22:02:09.315Z,9.68
2022-08-17T22:04:39.514Z,12.57
2022-08-17T22:07:09.871Z,8.75
2022-08-17T22:09:46.629Z,11.75
2022-08-17T22:12:18.980Z,10.82
2022-08-17T22:15:00.351Z,10.57
2022-08-17T22:17:30.110Z,13.52
2022-08-17T22:20:01.972Z,10.95
2022-08-17T22:22:35.390Z,12.57
2022-08-17T22:25:06.842Z,13.10
2022-08-17T22:27:50.050Z,14.05
2022-08-17T22:30:29.261Z,12.57
2022-08-17T22:32:57.997Z,13.23
2022-08-17T22:35:31.414Z,15.38
2022-08-17T22:38:30.236Z,11.13
2022-08-17T22:41:34.430Z,10.30
2022-08-17T22:44:10.090Z,18.60
2022-08-17T22:46:41.498Z,13.93
2022-08-17T22:49:09.325Z,14.50
2022-08-17T22:51:37.929Z,15.25
2022-08-17T22:54:35.090Z,11.60
2022-08-17T22:57:23.831Z,8.90
2022-08-17T22:59:53.944Z,7.40
2022-08-17T23:02:27.749Z,8.13
2022-08-17T23:05:16.747Z,6.38
2022-08-17T23:07:47.266Z,6.45
2022-08-17T23:10:15.795Z,7.65
2022-08-17T23:12:43.573Z,8.90
2022-08-17T23:15:15.316Z,8.02
2022-08-17T23:17:43.161Z,8.98
2022-08-17T23:20:15.453Z,6.55
2022-08-17T23:22:51.822Z,7.03
2022-08-17T23:25:26.888Z,7.28
2022-08-17T23:27:54.789Z,7.60
2022-08-17T23:30:25.514Z,6.97
2022-08-17T23:32:54.295Z,6.97
2022-08-17T23:35:40.242Z,6.00
2022-08-17T23:38:11.182Z,7.80
2022-08-17T23:40:39.974Z,7.35
2022-08-17T23:43:24.106Z,6.18
2022-08-17T23:45:54.633Z,7.88
2022-08-17T23:48:33.017Z,6.55
2022-08-17T23:51:09.585Z,7.72
2022-08-17T23:53:44.048Z,7.97
2022-08-17T23:56:11.984Z,6.82
2022-08-17T23:58:44.726Z,8.55
